createdAt,value
2023-02-02T00:01:39.107Z,3.28
2023-02-02T00:04:07.294Z,4.03
2023-02-02T00:06:35.578Z,4.65
2023-02-02T00:09:04.937Z,3.45
2023-02-02T00:11:33.204Z,5.28
2023-02-02T00:14:02.275Z,3.58
2023-02-02T00:16:53.149Z,3.53
2023-02-02T00:19:23.250Z,3.97
2023-02-02T00:21:51.671Z,4.20
2023-02-02T00:24:20.713Z,4.78
2023-02-02T00:26:50.909Z,5.32
2023-02-02T00:29:21.719Z,4.40
2023-02-02T00:31:50.093Z,4.35
2023-02-02T00:34:19.985Z,4.38
2023-02-02T00:36:49.343Z,5.22
2023-02-02T00:39:20.682Z,4.07
2023-02-02T00:41:48.987Z,5.93
2023-02-02T00:44:34.644Z,5.90
2023-02-02T00:47:04.979Z,4.90
2023-02-02T00:49:34.385Z,4.00
2023-02-02T00:52:02.453Z,4.60
2023-02-02T00:54:31.504Z,4.20
2023-02-02T00:56:59.536Z,4.47
2023-02-02T00:59:27.543Z,4.45
2023-02-02T01:01:55.858Z,4.13
2023-02-02T01:04:24.164Z,4.95
2023-02-02T01:06:53.495Z,3.70
2023-02-02T01:09:22.655Z,5.03
2023-02-02T01:11:52.310Z,4.75
2023-02-02T01:14:22.676Z,4.93
2023-02-02T01:16:52.106Z,4.60
2023-02-02T01:19:21.335Z,4.15
2023-02-02T01:21:52.326Z,4.80
2023-02-02T01:24:24.347Z,4.35
2023-02-02T01:26:54.056Z,4.32
2023-02-02T01:29:23.675Z,4.65
2023-02-02T01:31:53.680Z,4.38
2023-02-02T01:34:21.989Z,4.25
2023-02-02T01:36:50.328Z,4.78
2023-02-02T01:39:18.339Z,4.60
2023-02-02T01:41:48.140Z,4.40
2023-02-02T01:44:53.320Z,6.00
2023-02-02T01:47:24.719Z,3.70
2023-02-02T01:49:54.737Z,5.55
2023-02-02T01:52:25.363Z,4.60
2023-02-02T01:54:57.789Z,4.45
2023-02-02T01:57:32.076Z,4.50
2023-02-02T02:00:04.454Z,4.95
2023-02-02T02:02:46.260Z,4.78
2023-02-02T02:05:20.149Z,4.60
2023-02-02T02:07:50.789Z,5.57
2023-02-02T02:10:20.595Z,3.47
2023-02-02T02:12:50.301Z,4.60
2023-02-02T02:15:35.979Z,5.15
2023-02-02T02:18:28.789Z,5.22
2023-02-02T02:21:47.855Z,4.82
2023-02-02T02:25:36.554Z,3.80
2023-02-02T02:28:31.280Z,4.30
2023-02-02T02:31:18.903Z,4.13
2023-02-02T02:33:55.414Z,4.40
2023-02-02T02:36:32.461Z,3.50
2023-02-02T02:39:07.851Z,3.75
2023-02-02T02:41:40.956Z,4.20
2023-02-02T02:46:39.928Z,4.40
2023-02-02T02:49:12.775Z,4.75
2023-02-02T02:51:45.179Z,4.78
2023-02-02T02:54:19.835Z,5.00
2023-02-02T02:57:11.561Z,4.47
2023-02-02T02:59:53.321Z,4.57
2023-02-02T03:02:35.565Z,5.35
2023-02-02T03:05:17.979Z,5.07
2023-02-02T03:07:51.828Z,5.50
2023-02-02T03:12:53.343Z,4.00
2023-02-02T03:15:22.104Z,4.95
2023-02-02T03:17:52.527Z,5.20
2023-02-02T03:20:22.264Z,4.03
2023-02-02T03:22:50.697Z,5.10
2023-02-02T03:25:18.843Z,5.10
2023-02-02T03:27:47.807Z,4.57
2023-02-02T03:30:17.383Z,4.53
2023-02-02T03:32:45.845Z,3.90
2023-02-02T03:35:14.242Z,4.50
2023-02-02T03:37:44.371Z,5.40
2023-02-02T03:40:13.322Z,4.53
2023-02-02T03:42:41.617Z,4.63
2023-02-02T03:45:11.177Z,4.45
2023-02-02T03:47:42.049Z,3.78
2023-02-02T03:50:11.829Z,4.35
2023-02-02T03:52:40.256Z,3.25
2023-02-02T03:55:11.140Z,3.50
2023-02-02T03:57:40.392Z,2.45
2023-02-02T04:00:10.422Z,3.10
2023-02-02T04:02:40.916Z,2.07
2023-02-02T04:05:10.066Z,2.35
2023-02-02T04:07:38.171Z,1.58
2023-02-02T04:10:07.121Z,1.73
2023-02-02T04:12:37.261Z,1.38
2023-02-02T04:15:07.170Z,1.55
2023-02-02T04:17:36.416Z,1.33
2023-02-02T04:20:05.974Z,0.95
2023-02-02T04:22:35.286Z,1.10
2023-02-02T04:25:03.472Z,0.88
2023-02-02T04:27:33.896Z,1.38
2023-02-02T04:30:03.358Z,1.45
2023-02-02T04:32:33.324Z,0.93
2023-02-02T04:35:01.285Z,1.75
2023-02-02T04:37:32.208Z,1.55
2023-02-02T04:40:00.441Z,1.00
2023-02-02T04:42:28.552Z,1.10
2023-02-02T04:44:56.821Z,1.90
2023-02-02T04:47:26.387Z,1.70
2023-02-02T04:49:54.907Z,0.70
2023-02-02T04:52:23.340Z,1.33
2023-02-02T04:54:51.282Z,1.70
2023-02-02T04:57:19.299Z,2.13
2023-02-02T04:59:47.692Z,1.45
2023-02-02T05:02:15.696Z,1.77
2023-02-02T05:04:45.148Z,1.60
2023-02-02T05:07:13.327Z,1.65
2023-02-02T05:09:43.260Z,1.70
2023-02-02T05:12:11.680Z,1.10
2023-02-02T05:14:40.533Z,1.60
2023-02-02T05:17:08.579Z,1.40
2023-02-02T05:19:36.892Z,1.10
2023-02-02T05:22:06.533Z,1.58
2023-02-02T05:24:34.655Z,1.60
2023-02-02T05:27:02.838Z,2.15
2023-02-02T05:29:32.288Z,2.20
2023-02-02T05:32:00.652Z,1.48
2023-02-02T05:34:28.952Z,1.33
2023-02-02T05:36:57.592Z,1.20
2023-02-02T05:39:27.527Z,1.58
2023-02-02T05:41:55.524Z,1.25
2023-02-02T05:44:23.738Z,1.40
2023-02-02T05:46:52.594Z,1.10
2023-02-02T05:49:21.120Z,1.13
2023-02-02T05:51:52.737Z,0.93
2023-02-02T05:54:20.834Z,0.77
2023-02-02T05:56:52.369Z,1.15
2023-02-02T05:59:20.597Z,1.50
2023-02-02T06:01:49.403Z,1.33
2023-02-02T06:04:18.011Z,2.72
2023-02-02T06:06:47.900Z,1.73
2023-02-02T06:09:16.101Z,1.17
2023-02-02T06:11:44.922Z,1.83
2023-02-02T06:14:17.102Z,1.00
2023-02-02T06:16:45.282Z,1.38
2023-02-02T06:19:13.452Z,1.25
2023-02-02T06:21:42.068Z,1.20
2023-02-02T06:24:10.338Z,1.42
2023-02-02T06:26:38.692Z,1.52
2023-02-02T06:29:06.895Z,1.25
2023-02-02T06:31:36.485Z,1.02
2023-02-02T06:34:05.093Z,1.55
2023-02-02T06:36:33.107Z,1.70
2023-02-02T06:39:02.410Z,1.60
2023-02-02T06:41:31.532Z,1.40
2023-02-02T06:43:59.497Z,1.20
2023-02-02T06:46:27.942Z,1.67
2023-02-02T06:48:57.428Z,1.52
2023-02-02T06:51:25.621Z,1.55
2023-02-02T06:53:53.712Z,1.55
2023-02-02T06:56:22.943Z,1.70
2023-02-02T06:58:50.822Z,1.23
2023-02-02T07:01:19.053Z,1.90
2023-02-02T07:03:49.984Z,0.95
2023-02-02T07:06:21.388Z,1.27
2023-02-02T07:09:02.037Z,1.55
2023-02-02T07:11:35.302Z,1.40
2023-02-02T07:14:08.310Z,1.40
2023-02-02T07:16:36.580Z,1.65
2023-02-02T07:19:04.939Z,1.42
2023-02-02T07:21:36.222Z,1.95
2023-02-02T07:24:05.816Z,1.42
2023-02-02T07:26:36.104Z,1.38
2023-02-02T07:29:05.634Z,1.42
2023-02-02T07:31:36.247Z,1.45
2023-02-02T07:34:05.227Z,1.38
2023-02-02T07:36:35.189Z,1.42
2023-02-02T07:39:05.410Z,1.40
2023-02-02T07:41:35.941Z,0.82
2023-02-02T07:44:05.853Z,1.52
2023-02-02T07:46:34.762Z,1.50
2023-02-02T07:49:03.924Z,1.42
2023-02-02T07:51:32.003Z,1.30
2023-02-02T07:54:01.521Z,1.70
2023-02-02T07:56:29.944Z,1.45
2023-02-02T07:58:58.508Z,0.85
2023-02-02T08:01:28.647Z,1.38
2023-02-02T08:04:00.386Z,1.65
2023-02-02T08:06:31.445Z,1.40
2023-02-02T08:09:01.274Z,1.65
2023-02-02T08:11:30.188Z,1.77
2023-02-02T08:13:59.888Z,1.23
2023-02-02T08:16:29.579Z,1.35
2023-02-02T08:18:58.633Z,1.33
2023-02-02T08:21:26.997Z,1.38
2023-02-02T08:23:55.264Z,1.00
2023-02-02T08:26:27.587Z,1.55
2023-02-02T08:28:57.928Z,1.42
2023-02-02T08:31:29.326Z,1.65
2023-02-02T08:33:58.566Z,1.10
2023-02-02T08:36:28.417Z,1.23
2023-02-02T08:38:56.851Z,1.10
2023-02-02T08:41:26.537Z,1.48
2023-02-02T08:43:54.695Z,0.93
2023-02-02T08:46:23.635Z,1.60
2023-02-02T08:48:51.901Z,1.30
2023-02-02T08:51:21.394Z,1.27
2023-02-02T08:53:49.899Z,1.05
2023-02-02T08:56:20.168Z,1.40
2023-02-02T08:58:51.398Z,1.60
2023-02-02T09:01:21.966Z,1.35
2023-02-02T09:03:54.073Z,0.88
2023-02-02T09:06:23.134Z,1.80
2023-02-02T09:08:51.237Z,1.40
2023-02-02T09:11:20.867Z,0.82
2023-02-02T09:13:54.054Z,0.80
2023-02-02T09:16:23.464Z,0.70
2023-02-02T09:18:51.623Z,1.05
2023-02-02T09:21:20.973Z,1.27
2023-02-02T09:23:50.247Z,1.52
2023-02-02T09:26:20.338Z,1.20
2023-02-02T09:28:51.815Z,1.35
2023-02-02T09:31:20.169Z,0.95
2023-02-02T09:33:48.999Z,1.48
2023-02-02T09:36:20.331Z,1.38
2023-02-02T09:38:49.506Z,1.60
2023-02-02T09:41:47.680Z,1.40
2023-02-02T09:44:26.455Z,1.35
2023-02-02T09:47:14.281Z,0.77
2023-02-02T09:49:53.525Z,1.17
2023-02-02T09:52:27.628Z,1.45
2023-02-02T09:55:01.607Z,1.50
2023-02-02T09:57:37.744Z,1.45
2023-02-02T10:00:17.774Z,0.95
2023-02-02T10:02:50.010Z,1.48
2023-02-02T10:05:22.840Z,1.52
2023-02-02T10:07:55.184Z,1.10
2023-02-02T10:10:27.604Z,1.60
2023-02-02T10:13:00.036Z,1.42
2023-02-02T10:15:39.463Z,1.85
2023-02-02T10:18:14.072Z,1.45
2023-02-02T10:20:47.749Z,1.40
2023-02-02T10:23:23.867Z,1.30
2023-02-02T10:25:58.364Z,1.42
2023-02-02T10:28:42.234Z,1.27
2023-02-02T10:31:20.203Z,1.00
2023-02-02T10:34:02.687Z,1.80
2023-02-02T10:36:40.473Z,1.42
2023-02-02T10:39:21.835Z,2.30
2023-02-02T10:41:57.698Z,1.70
2023-02-02T10:44:35.237Z,1.30
2023-02-02T10:47:07.519Z,1.08
2023-02-02T10:49:38.100Z,1.65
2023-02-02T10:52:16.679Z,1.65
2023-02-02T10:54:57.804Z,1.73
2023-02-02T10:57:35.233Z,1.27
2023-02-02T11:00:12.109Z,1.60
2023-02-02T11:02:41.681Z,1.25
2023-02-02T11:05:32.670Z,1.42
2023-02-02T11:08:00.734Z,1.23
2023-02-02T11:10:29.346Z,1.20
2023-02-02T11:13:01.883Z,2.03
2023-02-02T11:15:31.927Z,1.73
2023-02-02T11:18:15.903Z,2.03
2023-02-02T11:20:46.856Z,1.40
2023-02-02T11:23:20.177Z,1.40
2023-02-02T11:26:00.001Z,1.67
2023-02-02T11:28:31.678Z,1.85
2023-02-02T11:31:00.480Z,2.00
2023-02-02T11:33:33.115Z,1.65
2023-02-02T11:36:03.983Z,2.05
2023-02-02T11:38:32.774Z,1.55
2023-02-02T11:41:04.306Z,2.03
2023-02-02T11:43:36.414Z,1.48
2023-02-02T11:46:08.215Z,1.70
2023-02-02T11:48:40.493Z,1.40
2023-02-02T11:51:09.474Z,1.88
2023-02-02T11:53:48.994Z,1.50
2023-02-02T11:56:21.549Z,1.80
2023-02-02T11:58:55.494Z,1.60
2023-02-02T12:01:26.757Z,1.98
2023-02-02T12:03:57.904Z,2.08
2023-02-02T12:06:28.404Z,1.90
2023-02-02T12:09:01.277Z,2.03
2023-02-02T12:11:43.913Z,2.47
2023-02-02T12:14:24.243Z,1.67
2023-02-02T12:17:03.943Z,2.05
2023-02-02T12:19:58.210Z,1.95
2023-02-02T12:22:42.315Z,1.50
2023-02-02T12:25:36.724Z,2.20
2023-02-02T12:28:18.112Z,1.65
2023-02-02T12:30:55.113Z,1.83
2023-02-02T12:33:34.392Z,1.42
2023-02-02T12:36:21.506Z,1.85
2023-02-02T12:39:12.031Z,1.25
2023-02-02T12:42:02.496Z,2.17
2023-02-02T12:44:39.073Z,1.40
2023-02-02T12:47:18.672Z,2.17
2023-02-02T12:50:05.667Z,1.60
2023-02-02T12:52:49.991Z,1.98
2023-02-02T12:55:31.201Z,1.70
2023-02-02T12:58:07.684Z,2.08
2023-02-02T13:00:54.208Z,2.33
2023-02-02T13:03:37.192Z,1.50
2023-02-02T13:06:29.733Z,1.17
2023-02-02T13:09:04.988Z,1.85
2023-02-02T13:11:40.156Z,1.98
2023-02-02T13:14:12.548Z,1.73
2023-02-02T13:16:44.322Z,1.80
2023-02-02T13:19:19.292Z,1.80
2023-02-02T13:21:49.254Z,1.75
2023-02-02T13:24:31.120Z,1.90
2023-02-02T13:27:02.630Z,1.65
2023-02-02T13:29:43.590Z,1.92
2023-02-02T13:32:22.455Z,1.35
2023-02-02T13:34:54.666Z,1.50
2023-02-02T13:37:36.927Z,1.65
2023-02-02T13:40:24.130Z,2.05
2023-02-02T13:42:59.535Z,2.00
2023-02-02T13:45:41.399Z,2.10
2023-02-02T13:48:22.513Z,2.13
2023-02-02T13:51:22.440Z,1.85
2023-02-02T13:54:13.039Z,1.95
2023-02-02T13:56:49.969Z,2.05
2023-02-02T13:59:38.818Z,2.03
2023-02-02T14:02:23.602Z,2.08
2023-02-02T14:04:57.610Z,2.25
2023-02-02T14:07:35.032Z,2.05
2023-02-02T14:10:04.761Z,2.10
2023-02-02T14:12:36.835Z,1.92
2023-02-02T14:15:07.519Z,2.35
2023-02-02T14:17:54.594Z,2.15
2023-02-02T14:20:49.123Z,1.75
2023-02-02T14:23:51.592Z,2.10
2023-02-02T14:26:37.221Z,2.72
2023-02-02T14:29:36.808Z,2.55
2023-02-02T14:32:34.356Z,2.25
2023-02-02T14:35:41.359Z,2.17
2023-02-02T14:38:14.465Z,2.22
2023-02-02T14:40:52.714Z,2.00
2023-02-02T14:43:46.258Z,2.03
2023-02-02T14:46:24.589Z,2.58
2023-02-02T14:49:13.334Z,2.05
2023-02-02T14:51:51.988Z,2.35
2023-02-02T14:54:26.230Z,2.50
2023-02-02T14:56:58.291Z,2.60
2023-02-02T14:59:31.378Z,2.30
2023-02-02T15:02:16.187Z,2.83
2023-02-02T15:04:45.159Z,2.53
2023-02-02T15:07:55.360Z,2.92
2023-02-02T15:11:22.854Z,3.05
2023-02-02T15:14:07.495Z,2.97
2023-02-02T15:16:40.629Z,3.30
2023-02-02T15:19:18.831Z,3.53
2023-02-02T15:21:50.438Z,4.65
2023-02-02T15:24:24.000Z,3.90
2023-02-02T15:29:34.452Z,4.75
2023-02-02T15:32:04.791Z,6.38
2023-02-02T15:34:41.553Z,6.25
2023-02-02T15:37:15.894Z,6.43
2023-02-02T15:39:49.159Z,6.78
2023-02-02T15:42:37.863Z,7.63
2023-02-02T15:45:07.557Z,7.30
2023-02-02T15:47:42.255Z,7.80
2023-02-02T15:50:20.803Z,8.55
2023-02-02T15:52:50.607Z,8.77
2023-02-02T15:55:24.256Z,9.30
2023-02-02T15:57:55.639Z,9.85
2023-02-02T16:00:27.558Z,10.00
2023-02-02T16:03:01.586Z,10.05
2023-02-02T16:05:46.316Z,9.57
2023-02-02T16:08:20.033Z,10.30
2023-02-02T16:10:50.260Z,10.55
2023-02-02T16:13:24.963Z,11.43
2023-02-02T16:15:58.750Z,10.07
2023-02-02T16:18:27.523Z,10.05
2023-02-02T16:21:00.160Z,9.20
2023-02-02T16:23:32.411Z,9.37
2023-02-02T16:26:03.979Z,8.65
2023-02-02T16:28:33.233Z,8.80
2023-02-02T16:31:02.800Z,8.05
2023-02-02T16:33:38.959Z,8.40
2023-02-02T16:36:25.162Z,8.18
2023-02-02T16:38:55.546Z,8.02
2023-02-02T16:41:33.801Z,7.50
2023-02-02T16:44:30.579Z,7.25
2023-02-02T16:47:01.753Z,7.15
2023-02-02T16:49:31.414Z,8.05
2023-02-02T16:52:16.230Z,9.10
2023-02-02T16:54:52.829Z,8.85
2023-02-02T16:57:24.068Z,10.00
2023-02-02T16:59:54.661Z,8.23
2023-02-02T17:02:30.471Z,10.48
2023-02-02T17:05:04.803Z,10.68
2023-02-02T17:07:38.268Z,11.05
2023-02-02T17:10:23.888Z,10.68
2023-02-02T17:12:51.852Z,11.15
2023-02-02T17:15:34.697Z,11.68
2023-02-02T17:18:05.055Z,10.73
2023-02-02T17:20:34.630Z,11.20
2023-02-02T17:23:09.890Z,10.63
2023-02-02T17:25:41.925Z,10.02
2023-02-02T17:28:12.705Z,11.48
2023-02-02T17:30:42.159Z,10.05
2023-02-02T17:33:14.698Z,8.85
2023-02-02T17:35:53.579Z,10.23
2023-02-02T17:38:27.649Z,9.68
2023-02-02T17:41:00.854Z,10.05
2023-02-02T17:43:29.928Z,9.20
2023-02-02T17:45:58.088Z,9.93
2023-02-02T17:48:26.544Z,9.38
2023-02-02T17:50:54.603Z,8.95
2023-02-02T17:53:25.298Z,9.65
2023-02-02T17:55:53.719Z,9.98
2023-02-02T17:58:21.834Z,8.32
2023-02-02T18:00:54.427Z,9.02
2023-02-02T18:03:25.917Z,9.40
2023-02-02T18:05:54.353Z,8.85
2023-02-02T18:08:22.662Z,8.75
2023-02-02T18:10:52.520Z,8.88
2023-02-02T18:13:22.684Z,8.18
2023-02-02T18:15:52.136Z,8.43
2023-02-02T18:18:20.231Z,8.27
2023-02-02T18:20:49.647Z,7.60
2023-02-02T18:23:19.913Z,7.07
2023-02-02T18:25:48.487Z,7.50
2023-02-02T18:28:18.202Z,7.88
2023-02-02T18:30:46.498Z,7.28
2023-02-02T18:33:17.277Z,7.82
2023-02-02T18:35:46.696Z,7.05
2023-02-02T18:38:15.637Z,7.75
2023-02-02T18:40:44.138Z,7.57
2023-02-02T18:43:12.394Z,6.85
2023-02-02T18:45:42.066Z,6.95
2023-02-02T18:48:10.261Z,6.75
2023-02-02T18:50:38.420Z,6.93
2023-02-02T18:53:07.592Z,5.97
2023-02-02T18:55:38.240Z,6.70
2023-02-02T18:58:07.889Z,5.10
2023-02-02T19:00:35.872Z,5.70
2023-02-02T19:03:06.693Z,6.70
2023-02-02T19:05:52.541Z,5.95
2023-02-02T19:08:21.265Z,6.30
2023-02-02T19:10:49.790Z,6.82
2023-02-02T19:13:20.403Z,6.60
2023-02-02T19:15:50.536Z,5.20
2023-02-02T19:18:22.417Z,5.82
2023-02-02T19:20:52.672Z,5.63
2023-02-02T19:23:23.321Z,6.05
2023-02-02T19:25:54.077Z,5.70
2023-02-02T19:28:24.270Z,5.80
2023-02-02T19:30:54.134Z,5.82
2023-02-02T19:33:29.633Z,4.45
2023-02-02T19:35:57.691Z,5.03
2023-02-02T19:38:30.192Z,5.68
2023-02-02T19:41:02.395Z,4.53
2023-02-02T19:43:33.371Z,4.70
2023-02-02T19:46:04.300Z,4.65
2023-02-02T19:48:36.733Z,4.05
2023-02-02T19:51:28.429Z,3.90
2023-02-02T19:54:02.624Z,4.55
2023-02-02T19:56:39.746Z,3.65
2023-02-02T19:59:14.556Z,3.03
2023-02-02T20:01:45.951Z,3.65
2023-02-02T20:04:15.874Z,3.60
2023-02-02T20:06:58.484Z,2.97
2023-02-02T20:09:34.700Z,2.88
2023-02-02T20:12:19.290Z,3.60
2023-02-02T20:14:49.199Z,3.42
2023-02-02T20:17:23.772Z,3.38
2023-02-02T20:19:53.189Z,3.10
2023-02-02T20:22:25.865Z,3.33
2023-02-02T20:24:56.635Z,3.03
2023-02-02T20:27:29.131Z,2.88
2023-02-02T20:30:01.515Z,2.53
2023-02-02T20:32:41.560Z,3.05
2023-02-02T20:35:25.288Z,2.97
2023-02-02T20:37:55.792Z,2.63
2023-02-02T20:40:26.735Z,2.97
2023-02-02T20:42:55.074Z,2.78
2023-02-02T20:45:23.053Z,2.92
2023-02-02T20:47:51.905Z,2.60
2023-02-02T20:50:23.784Z,2.83
2023-02-02T20:52:53.543Z,2.72
2023-02-02T20:55:22.608Z,2.75
2023-02-02T20:57:50.781Z,2.72
2023-02-02T21:00:21.433Z,2.17
2023-02-02T21:02:49.837Z,2.63
2023-02-02T21:05:18.169Z,2.90
2023-02-02T21:07:47.870Z,3.08
2023-02-02T21:10:16.406Z,2.42
2023-02-02T21:12:45.822Z,2.35
2023-02-02T21:15:16.060Z,2.30
2023-02-02T21:17:45.248Z,2.35
2023-02-02T21:20:15.330Z,2.30
2023-02-02T21:22:43.825Z,2.35
2023-02-02T21:25:13.814Z,2.08
2023-02-02T21:27:42.130Z,2.58
2023-02-02T21:30:12.542Z,2.10
2023-02-02T21:32:40.552Z,2.35
2023-02-02T21:35:09.660Z,2.00
2023-02-02T21:37:38.208Z,2.65
2023-02-02T21:40:15.388Z,1.95
2023-02-02T21:42:48.804Z,1.77
2023-02-02T21:45:34.548Z,2.13
2023-02-02T21:48:06.345Z,2.35
2023-02-02T21:50:37.935Z,2.38
2023-02-02T21:53:24.148Z,2.80
2023-02-02T21:55:55.436Z,2.10
2023-02-02T21:58:26.082Z,1.90
2023-02-02T22:00:55.266Z,2.10
2023-02-02T22:03:30.659Z,1.98
2023-02-02T22:06:19.773Z,2.22
2023-02-02T22:08:48.587Z,1.92
2023-02-02T22:11:29.300Z,1.90
2023-02-02T22:14:02.646Z,2.28
2023-02-02T22:19:27.659Z,2.08
2023-02-02T22:22:11.098Z,2.28
2023-02-02T22:24:39.309Z,1.98
2023-02-02T22:27:18.167Z,1.90
2023-02-02T22:29:46.897Z,1.40
2023-02-02T22:32:15.060Z,2.00
2023-02-02T22:34:43.633Z,1.80
2023-02-02T22:37:11.659Z,2.25
2023-02-02T22:39:42.801Z,1.52
2023-02-02T22:42:12.290Z,2.25
2023-02-02T22:44:40.519Z,1.80
2023-02-02T22:47:08.433Z,1.80
2023-02-02T22:49:36.322Z,1.88
2023-02-02T22:52:04.748Z,1.77
2023-02-02T22:54:32.821Z,1.90
2023-02-02T22:57:00.983Z,1.77
2023-02-02T22:59:30.404Z,1.70
2023-02-02T23:01:58.450Z,1.88
2023-02-02T23:04:26.904Z,1.88
2023-02-02T23:06:55.110Z,1.60
2023-02-02T23:09:23.745Z,1.15
2023-02-02T23:11:51.873Z,1.25
2023-02-02T23:14:20.194Z,1.58
2023-02-02T23:16:50.005Z,1.65
2023-02-02T23:19:18.540Z,1.50
2023-02-02T23:21:46.437Z,1.60
2023-02-02T23:24:14.390Z,1.42
2023-02-02T23:26:42.413Z,2.13
2023-02-02T23:29:10.414Z,1.83
2023-02-02T23:31:38.442Z,1.65
2023-02-02T23:34:07.765Z,1.25
2023-02-02T23:36:35.794Z,1.23
2023-02-02T23:39:03.926Z,1.35
2023-02-02T23:41:31.926Z,1.67
2023-02-02T23:44:00.159Z,1.77
2023-02-02T23:46:28.434Z,2.45
2023-02-02T23:48:57.238Z,1.70
2023-02-02T23:51:27.237Z,1.58
2023-02-02T23:53:55.695Z,1.88
2023-02-02T23:56:23.776Z,1.30
2023-02-02T23:58:51.705Z,2.08
